a
b
c
d

Рынок наличной валюты

USD/RUB Москва
В данном разделе сайта представлен курс обмена доллара в Москве на текущий день. Статистические данные взяты из открытых источников. Для того, чтобы удостовериться в актуальности представленных сведений обмена USD/RUB в Москве на конкретный момент времени, свяжитесь с представителями банка по указанному в карточке телефону. Для просмотра номера телефона и других сведений о банке достаточно кликнуть на его название в общей таблице. Рынок наличной валюты достаточно подвижен, поэтому данные о курсе обмена доллара и рубля постоянно обновляются. В разделе "Рынок наличной валюты" Вы сможете изучить курс покупки-продажи для разных банков и выбрать наиболее выгодный вариант обмена валюты.


Показать полностью

Обмен Долларов США и Российских рублей в Москве


Название банка Покупка Продажа Сумма Комм. Время
НКО "Континент Финанс" (ПАО) оквку № 10 "На Университетском д. 4" 67,5 68,2 10000 Нет 06.09.2015
ОАО МАБ "Темпбанк" оквку №63 67,5 0 100000 Нет 07.09.2015
ОАО МАБ "Темпбанк" оквку №63 67,5 0 10000 Нет 07.09.2015
ОАО "БКС Банк" ККО "На Красной Пресне" 67,5 68,59 1 Есть 07.09.2015
ПАО АГРОИНКОМБАНК оквку "Менжинского 38" 67,5 68,78 15000 Нет 26.08.2015
ООО КБ "ГРиС-Банк" Филиал "Московский" оквку №1 67,5 68,15 5000 Нет 06.09.2015
АО "НС Банк" ДО "Тверской бульвар" 67,5 68,6 1 Нет 07.09.2015
"Миллениум" Банк" (ЗАО) 67,5 69,7 1001 Нет 07.09.2015
АО "СМАРТБАНК" ДО "Войковский" 67,5 68,5 1 Нет 07.09.2015
АКБ "ФОРА-БАНК" (АО) ДО "Ленинский" 67,5 69,2 1 Нет 07.09.2015
ОАО АГРОИНКОМБАНК ДО "Хамовники" 67,5 68,3 1 Нет 06.09.2015
ООО ИКБ "ЛОГОС" оквку "Новослободская 10" 67,5 68 20000 Нет 06.09.2015
ООО КБ "Ренессанс" оквку "м. Таганская (кольцевая), ул. Верхняя Радищевская, д. 22" 67,5 68,5 10000 Нет 07.09.2015
ООО ИКБ "ЛОГОС" оквку "Киевский" 67,5 68,5 1 Нет 07.09.2015
ООО КБ "Ренессанс" оквку "м. Таганская (кольцевая), ул. Верхняя Радищевская, д. 22" 67,5 68,5 30000 Нет 07.09.2015
(ООО "КБ "МЕЖТРАСТБАНК") оквку "Университет" 67,5 68,2 5000 Нет 06.09.2015
АКБ "Ланта-Банк" (ЗАО) ДО "Ленинский проспект" 67,5 69,5 1 Нет 07.09.2015
АО "НС Банк" ДО "Юго-Западный" 67,5 68,6 1 Нет 07.09.2015
ООО КБ "Металлург" ок ул. Ивана Бабушкина 67,5 0 10000 Нет 21.08.2015
ООО ИКБ "ЛОГОС" оквку "Новослободская 10" 67,5 68,4 10000 Нет 07.09.2015
АО "НС Банк" ул. Добровольческая 67,49 68,61 10000 Нет 07.09.2015
АО "НС Банк" ДО "Павшино" 67,49 68,61 10000 Нет 07.09.2015
АО "НС Банк" ДО "На Азовской" 67,48 68,62 20000 Нет 07.09.2015
ООО КБ "Стар Альянс" оквку № 9 67,477 0 50000 Нет 20.08.2015
ООО КБ "Стар Альянс" оквку № 9 67,477 0 10000 Нет 20.08.2015
АО "НС Банк" ДО "На Азовской" 67,47 68,63 10000 Нет 07.09.2015
ООО КБ "ВНЕШФИНБАНК" ККО "Центральный" 67,46 0 50000 Нет 04.09.2015
ПАО АКБ "РФА" оквку "Чистые пруды" 67,4599 67,6911 30000 Нет 04.09.2015
АО "НС Банк" ул. Добровольческая 67,45 68,65 1 Нет 07.09.2015
АО "НС Банк" ДО "На Азовской" 67,45 68,65 1 Нет 07.09.2015
ООО КБ "ЯР-Банк" ул. Донская 67,45 69,2 100000 Нет 07.09.2015
ООО КБ "ЯР-Банк" ул. Донская 67,45 69,2 1 Нет 07.09.2015
АО "НС Банк" ДО "Павшино" 67,45 68,65 1 Нет 07.09.2015
ООО КБ "ЯР-Банк" ул. Донская 67,45 69,2 10000 Нет 07.09.2015
ООО КБ "Анелик РУ" оквку № 11 67,41 68,28 1 Нет 06.09.2015
ООО КБ "ГРиС-Банк" оквку №3 67,4099 68,5904 20000 Нет 07.09.2015
ООО КБ "ГРиС-Банк" оквку №3 67,4099 68,5909 10000 Нет 07.09.2015
ООО КБ "ГРиС-Банк" оквку №3 67,4099 68,7951 1000 Нет 07.09.2015
ООО "ЮРБ" оквку № 13 67,405 67,9 30000 Нет 04.09.2015
КБ "ЭНЕРГОТРАНСБАНК" (ОАО) 67,4 69 1 Нет 07.09.2015
ООО ИКБ "ЛОГОС" оквку "Пушечная" 67,4 68,7 1000 Нет 07.09.2015
ООО КБ "Стар Альянс" оквку № 11 67,4 68,9 10001 Нет 07.09.2015
ООО КБ "Стар Альянс" оквку № 11 67,4 68,9 5000 Нет 07.09.2015
"Интерактивный Банк" (ООО) 67,4 69,4 1 Нет 07.09.2015
НКО "Континент Финанс" (ПАО) оквку № 5 "Кузьминки 2" 67,4 68 10000 Нет 04.09.2015
ООО КБ "ПЛАТИНА" 67,4 68,85 1 Нет 07.09.2015
ООО "Банк РСИ" 67,4 68,9 1 Нет 07.09.2015
АКИБ "ОБРАЗОВАНИЕ" (ЗАО) оквку № 65 "Зеленоград" 67,4 0 30000 Нет 05.09.2015
КБ "ЭКОНОМИЧЕСКИЙ СОЮЗ" ООО, ДО "Митино" 67,4 68,9 1 Нет 07.09.2015
АКБ "РУССЛАВБАНК" (ЗАО) ДО "На Тульской" 67,4 67,89 20000 Нет 04.09.2015

Погода сейчас

+17°C
Солнечно, влажность 71%
Москва